createdAt,value
2022-07-30T00:01:42.148Z,12.40234375
2022-07-30T00:11:42.105Z,12.200927734375
2022-07-30T00:21:42.022Z,11.99951171875
2022-07-30T00:31:41.964Z,11.90185546875
2022-07-30T00:41:41.888Z,11.798095703125
2022-07-30T00:51:41.792Z,11.798095703125
2022-07-30T01:01:41.719Z,11.798095703125
2022-07-30T01:11:41.639Z,11.90185546875
2022-07-30T01:21:41.591Z,12.09716796875
2022-07-30T01:31:41.546Z,12.200927734375
2022-07-30T01:41:41.442Z,12.09716796875
2022-07-30T01:51:41.369Z,12.09716796875
2022-07-30T02:01:41.294Z,12.200927734375
2022-07-30T02:11:41.215Z,12.09716796875
2022-07-30T02:21:41.156Z,11.99951171875
2022-07-30T02:31:41.203Z,11.99951171875
2022-07-30T02:41:40.993Z,11.99951171875
2022-07-30T02:51:40.952Z,11.90185546875
2022-07-30T03:01:40.972Z,12.09716796875
2022-07-30T03:11:40.806Z,12.200927734375
2022-07-30T03:21:40.733Z,12.09716796875
2022-07-30T03:31:40.724Z,12.200927734375
2022-07-30T03:41:40.600Z,12.40234375
2022-07-30T04:01:40.574Z,12.59765625
2022-07-30T04:11:41.343Z,12.5
2022-07-30T04:21:40.319Z,12.40234375
2022-07-30T04:31:40.960Z,12.40234375
2022-07-30T04:41:48.594Z,12.40234375
2022-07-30T04:51:40.085Z,12.40234375
2022-07-30T05:01:40.882Z,12.298583984375
2022-07-30T05:11:39.957Z,12.200927734375
2022-07-30T05:21:39.880Z,12.09716796875
2022-07-30T05:31:39.825Z,11.99951171875
2022-07-30T05:41:39.748Z,12.40234375
2022-07-30T05:51:39.673Z,12.09716796875
2022-07-30T06:01:39.642Z,12.200927734375
2022-07-30T06:11:39.525Z,12.200927734375
2022-07-30T06:22:05.294Z,12.40234375
2022-07-30T06:31:39.424Z,12.5
2022-07-30T06:41:39.324Z,12.59765625
2022-07-30T06:51:39.281Z,12.40234375
2022-07-30T07:01:39.263Z,12.6953125
2022-07-30T07:11:39.101Z,12.59765625
2022-07-30T07:21:39.019Z,12.298583984375
2022-07-30T07:32:07.441Z,12.5
2022-07-30T07:41:48.232Z,12.40234375
2022-07-30T07:51:48.094Z,12.59765625
2022-07-30T08:01:38.814Z,12.59765625
2022-07-30T08:11:38.696Z,12.5
2022-07-30T08:21:38.615Z,12.80517578125
2022-07-30T08:31:38.540Z,12.5
2022-07-30T08:41:38.482Z,12.80517578125
2022-07-30T08:51:38.409Z,12.80517578125
2022-07-30T09:01:38.324Z,12.80517578125
2022-07-30T09:11:38.245Z,12.90283203125
2022-07-30T09:21:38.205Z,12.80517578125
2022-07-30T09:31:39.826Z,12.90283203125
2022-07-30T09:41:39.406Z,12.80517578125
2022-07-30T09:51:55.604Z,12.80517578125
2022-07-30T10:01:49.685Z,12.90283203125
2022-07-30T10:11:37.837Z,12.80517578125
2022-07-30T10:21:37.755Z,12.5
2022-07-30T10:31:48.229Z,12.40234375
2022-07-30T10:41:43.232Z,12.5
2022-07-30T10:51:37.555Z,12.5
2022-07-30T11:01:37.494Z,12.5
2022-07-30T11:12:01.583Z,12.09716796875
2022-07-30T11:21:37.352Z,11.90185546875
2022-07-30T11:32:07.392Z,11.99951171875
2022-07-30T11:41:37.205Z,12.09716796875
2022-07-30T11:51:37.111Z,11.90185546875
2022-07-30T12:01:37.058Z,11.602783203125
2022-07-30T12:11:36.993Z,11.700439453125
2022-07-30T12:21:36.913Z,11.4990234375
2022-07-30T12:31:38.442Z,11.102294921875
2022-07-30T12:41:36.760Z,10.90087890625
2022-07-30T12:51:36.747Z,10.797119140625
2022-07-30T13:01:36.684Z,10.699462890625
2022-07-30T13:11:36.555Z,10.797119140625
2022-07-30T13:21:36.520Z,10.797119140625
2022-07-30T13:31:42.899Z,10.699462890625
2022-07-30T13:41:36.474Z,10.699462890625
2022-07-30T13:51:36.334Z,10.797119140625
2022-07-30T14:01:36.334Z,10.90087890625
2022-07-30T14:11:36.188Z,11.102294921875
2022-07-30T14:21:36.232Z,11.102294921875
2022-07-30T14:31:36.138Z,11.199951171875
2022-07-30T14:41:35.971Z,11.102294921875
2022-07-30T14:51:35.891Z,11.102294921875
2022-07-30T15:01:35.892Z,11.199951171875
2022-07-30T15:12:04.256Z,11.199951171875
2022-07-30T15:21:35.699Z,11.102294921875
2022-07-30T15:31:35.623Z,10.99853515625
2022-07-30T15:41:35.536Z,10.498046875
2022-07-30T15:51:35.468Z,8.89892578125
2022-07-30T16:01:35.508Z,8.502197265625
2022-07-30T16:11:35.333Z,8.30078125
2022-07-30T16:21:35.262Z,7.80029296875
2022-07-30T16:31:35.200Z,7.2998046875
2022-07-30T16:41:35.121Z,7.098388671875
2022-07-30T16:51:35.147Z,7.2021484375
2022-07-30T17:01:35.085Z,7.000732421875
2022-07-30T17:11:47.012Z,7.000732421875
2022-07-30T17:21:34.854Z,6.79931640625
2022-07-30T17:31:34.785Z,6.70166015625
2022-07-30T17:41:34.714Z,6.70166015625
2022-07-30T17:51:34.645Z,6.597900390625
2022-07-30T18:01:34.680Z,6.500244140625
2022-07-30T18:11:34.640Z,6.597900390625
2022-07-30T18:21:34.424Z,6.500244140625
2022-07-30T18:31:34.365Z,6.298828125
2022-07-30T18:41:34.321Z,6.500244140625
2022-07-30T18:51:34.237Z,6.402587890625
2022-07-30T19:01:34.251Z,6.402587890625
2022-07-30T19:11:34.098Z,6.298828125
2022-07-30T19:21:34.056Z,6.298828125
2022-07-30T19:31:33.985Z,6.201171875
2022-07-30T19:41:33.916Z,6.201171875
2022-07-30T19:52:22.956Z,6.402587890625
2022-07-30T20:01:40.486Z,6.402587890625
2022-07-30T20:11:36.137Z,6.402587890625
2022-07-30T20:21:56.564Z,6.402587890625
2022-07-30T20:31:33.561Z,6.298828125
2022-07-30T20:41:33.492Z,6.402587890625
2022-07-30T20:51:33.903Z,6.500244140625
2022-07-30T21:01:33.400Z,6.500244140625
2022-07-30T21:11:35.893Z,6.500244140625
2022-07-30T21:21:38.615Z,6.402587890625
2022-07-30T21:32:01.620Z,6.402587890625
2022-07-30T21:51:33.340Z,6.597900390625
2022-07-30T22:01:33.203Z,6.500244140625
2022-07-30T22:11:42.498Z,6.597900390625
2022-07-30T22:21:32.840Z,6.70166015625
2022-07-30T22:31:39.577Z,6.70166015625
2022-07-30T22:41:32.692Z,6.79931640625
2022-07-30T22:52:01.283Z,7.098388671875
2022-07-30T23:01:32.552Z,7.000732421875
2022-07-30T23:11:37.192Z,7.501220703125
2022-07-30T23:12:27.582Z,6.402587890625
2022-07-30T23:21:32.411Z,7.3974609375
2022-07-30T23:31:32.340Z,7.501220703125
2022-07-30T23:41:32.264Z,7.3974609375
2022-07-30T23:51:33.350Z,7.598876953125
